sensor_id;sensor_type;location;lat;lon;timestamp;temperature;humidity
75262;DHT22;63859;51.064;4.580;2024-01-27T00:00:42;3.60;99.90
75262;DHT22;63859;51.064;4.580;2024-01-27T00:03:08;3.60;99.90
75262;DHT22;63859;51.064;4.580;2024-01-27T00:05:34;3.60;99.90
75262;DHT22;63859;51.064;4.580;2024-01-27T00:07:59;3.60;99.90
75262;DHT22;63859;51.064;4.580;2024-01-27T00:12:51;3.60;99.90
75262;DHT22;63859;51.064;4.580;2024-01-27T00:15:17;3.60;99.90
75262;DHT22;63859;51.064;4.580;2024-01-27T00:20:09;3.60;99.90
75262;DHT22;63859;51.064;4.580;2024-01-27T00:27:27;3.60;99.90
75262;DHT22;63859;51.064;4.580;2024-01-27T00:29:52;3.50;99.90
75262;DHT22;63859;51.064;4.580;2024-01-27T00:32:18;3.60;99.90
75262;DHT22;63859;51.064;4.580;2024-01-27T00:39:36;3.50;99.90
75262;DHT22;63859;51.064;4.580;2024-01-27T00:42:01;3.50;99.90
75262;DHT22;63859;51.064;4.580;2024-01-27T00:44:27;3.40;99.90
75262;DHT22;63859;51.064;4.580;2024-01-27T00:46:52;3.40;99.90
75262;DHT22;63859;51.064;4.580;2024-01-27T00:49:18;3.40;99.90
75262;DHT22;63859;51.064;4.580;2024-01-27T00:51:44;3.40;99.90
75262;DHT22;63859;51.064;4.580;2024-01-27T00:54:09;3.40;99.90
75262;DHT22;63859;51.064;4.580;2024-01-27T00:56:35;3.30;99.90
75262;DHT22;63859;51.064;4.580;2024-01-27T00:59:01;3.30;99.90
75262;DHT22;63859;51.064;4.580;2024-01-27T01:03:52;3.30;99.90
75262;DHT22;63859;51.064;4.580;2024-01-27T01:06:18;3.30;99.90
75262;DHT22;63859;51.064;4.580;2024-01-27T01:08:44;3.20;99.90
75262;DHT22;63859;51.064;4.580;2024-01-27T01:11:09;3.20;99.90
75262;DHT22;63859;51.064;4.580;2024-01-27T01:18:28;3.20;99.90
75262;DHT22;63859;51.064;4.580;2024-01-27T01:20:54;3.10;99.90
75262;DHT22;63859;51.064;4.580;2024-01-27T01:23:20;3.10;99.90
75262;DHT22;63859;51.064;4.580;2024-01-27T01:25:45;3.10;99.90
75262;DHT22;63859;51.064;4.580;2024-01-27T01:28:11;3.10;99.90
75262;DHT22;63859;51.064;4.580;2024-01-27T01:30:37;3.10;99.90
75262;DHT22;63859;51.064;4.580;2024-01-27T01:33:02;3.10;99.90
75262;DHT22;63859;51.064;4.580;2024-01-27T01:35:28;3.10;99.90
75262;DHT22;63859;51.064;4.580;2024-01-27T01:37:54;3.20;99.90
75262;DHT22;63859;51.064;4.580;2024-01-27T01:40:20;3.10;99.90
75262;DHT22;63859;51.064;4.580;2024-01-27T01:42:50;3.20;99.90
75262;DHT22;63859;51.064;4.580;2024-01-27T01:47:43;3.10;99.90
75262;DHT22;63859;51.064;4.580;2024-01-27T01:52:36;3.10;99.90
75262;DHT22;63859;51.064;4.580;2024-01-27T01:55:02;3.10;99.90
75262;DHT22;63859;51.064;4.580;2024-01-27T02:04:12;3.10;99.90
75262;DHT22;63859;51.064;4.580;2024-01-27T02:06:38;3.10;99.90
75262;DHT22;63859;51.064;4.580;2024-01-27T02:09:03;3.10;99.90
75262;DHT22;63859;51.064;4.580;2024-01-27T02:13:57;3.10;99.90
75262;DHT22;63859;51.064;4.580;2024-01-27T02:18:49;3.00;99.90
75262;DHT22;63859;51.064;4.580;2024-01-27T02:21:15;3.00;99.90
75262;DHT22;63859;51.064;4.580;2024-01-27T02:23:40;3.00;99.90
75262;DHT22;63859;51.064;4.580;2024-01-27T02:26:06;3.00;99.90
75262;DHT22;63859;51.064;4.580;2024-01-27T02:28:32;2.90;99.90
75262;DHT22;63859;51.064;4.580;2024-01-27T02:30:59;3.00;99.90
75262;DHT22;63859;51.064;4.580;2024-01-27T02:33:28;3.00;99.90
75262;DHT22;63859;51.064;4.580;2024-01-27T02:35:54;2.90;99.90
75262;DHT22;63859;51.064;4.580;2024-01-27T02:40:46;2.90;99.90
75262;DHT22;63859;51.064;4.580;2024-01-27T02:45:37;2.90;99.90
75262;DHT22;63859;51.064;4.580;2024-01-27T02:48:03;2.90;99.90
75262;DHT22;63859;51.064;4.580;2024-01-27T02:52:55;2.80;99.90
75262;DHT22;63859;51.064;4.580;2024-01-27T02:55:21;2.80;99.90
75262;DHT22;63859;51.064;4.580;2024-01-27T02:57:47;2.80;99.90
75262;DHT22;63859;51.064;4.580;2024-01-27T03:00:12;2.70;99.90
75262;DHT22;63859;51.064;4.580;2024-01-27T03:02:41;2.70;99.90
75262;DHT22;63859;51.064;4.580;2024-01-27T03:07:34;2.70;99.90
75262;DHT22;63859;51.064;4.580;2024-01-27T03:12:26;2.60;99.90
75262;DHT22;63859;51.064;4.580;2024-01-27T03:14:52;2.60;99.90
75262;DHT22;63859;51.064;4.580;2024-01-27T03:17:17;2.60;99.90
75262;DHT22;63859;51.064;4.580;2024-01-27T03:22:09;2.60;99.90
75262;DHT22;63859;51.064;4.580;2024-01-27T03:24:35;2.60;99.90
75262;DHT22;63859;51.064;4.580;2024-01-27T03:27:01;2.60;99.90
75262;DHT22;63859;51.064;4.580;2024-01-27T03:29:26;2.70;99.90
75262;DHT22;63859;51.064;4.580;2024-01-27T03:31:53;2.60;99.90
75262;DHT22;63859;51.064;4.580;2024-01-27T03:34:19;2.60;99.90
75262;DHT22;63859;51.064;4.580;2024-01-27T03:36:49;2.70;99.90
75262;DHT22;63859;51.064;4.580;2024-01-27T03:39:15;2.50;99.90
75262;DHT22;63859;51.064;4.580;2024-01-27T03:41:40;2.50;99.90
75262;DHT22;63859;51.064;4.580;2024-01-27T03:44:06;2.50;99.90
75262;DHT22;63859;51.064;4.580;2024-01-27T03:46:32;2.50;99.90
75262;DHT22;63859;51.064;4.580;2024-01-27T03:48:57;2.50;99.90
75262;DHT22;63859;51.064;4.580;2024-01-27T03:51:23;2.60;99.90
75262;DHT22;63859;51.064;4.580;2024-01-27T03:53:50;2.50;99.90
75262;DHT22;63859;51.064;4.580;2024-01-27T03:56:16;2.50;99.90
75262;DHT22;63859;51.064;4.580;2024-01-27T03:58:42;2.60;99.90
75262;DHT22;63859;51.064;4.580;2024-01-27T04:01:07;2.50;99.90
75262;DHT22;63859;51.064;4.580;2024-01-27T04:03:33;2.50;99.90
75262;DHT22;63859;51.064;4.580;2024-01-27T04:05:59;2.50;99.90
75262;DHT22;63859;51.064;4.580;2024-01-27T04:10:53;2.50;99.90
75262;DHT22;63859;51.064;4.580;2024-01-27T04:13:19;2.50;99.90
75262;DHT22;63859;51.064;4.580;2024-01-27T04:18:10;2.50;99.90
75262;DHT22;63859;51.064;4.580;2024-01-27T04:20:37;2.50;99.90
75262;DHT22;63859;51.064;4.580;2024-01-27T04:23:03;2.50;99.90
75262;DHT22;63859;51.064;4.580;2024-01-27T04:25:29;2.50;99.90
75262;DHT22;63859;51.064;4.580;2024-01-27T04:27:55;2.50;99.90
75262;DHT22;63859;51.064;4.580;2024-01-27T04:32:46;2.50;99.90
75262;DHT22;63859;51.064;4.580;2024-01-27T04:35:14;2.40;99.90
75262;DHT22;63859;51.064;4.580;2024-01-27T04:37:40;2.40;99.90
75262;DHT22;63859;51.064;4.580;2024-01-27T04:45:05;2.30;99.90
75262;DHT22;63859;51.064;4.580;2024-01-27T04:47:31;2.30;99.90
75262;DHT22;63859;51.064;4.580;2024-01-27T04:52:23;2.30;99.90
75262;DHT22;63859;51.064;4.580;2024-01-27T04:59:42;2.20;99.90
75262;DHT22;63859;51.064;4.580;2024-01-27T05:02:07;2.20;99.90
75262;DHT22;63859;51.064;4.580;2024-01-27T05:04:33;2.10;99.90
75262;DHT22;63859;51.064;4.580;2024-01-27T05:06:59;2.10;99.90
75262;DHT22;63859;51.064;4.580;2024-01-27T05:11:51;2.10;99.90
75262;DHT22;63859;51.064;4.580;2024-01-27T05:14:19;2.00;99.90
75262;DHT22;63859;51.064;4.580;2024-01-27T05:16:45;2.00;99.90
75262;DHT22;63859;51.064;4.580;2024-01-27T05:21:39;2.00;99.90
75262;DHT22;63859;51.064;4.580;2024-01-27T05:24:05;2.00;99.90
75262;DHT22;63859;51.064;4.580;2024-01-27T05:26:31;2.00;99.90
75262;DHT22;63859;51.064;4.580;2024-01-27T05:28:56;2.00;99.90
75262;DHT22;63859;51.064;4.580;2024-01-27T05:31:22;2.00;99.90
75262;DHT22;63859;51.064;4.580;2024-01-27T05:33:48;2.00;99.90
75262;DHT22;63859;51.064;4.580;2024-01-27T05:36:13;2.00;99.90
75262;DHT22;63859;51.064;4.580;2024-01-27T05:41:05;2.00;99.90
75262;DHT22;63859;51.064;4.580;2024-01-27T05:43:30;2.00;99.90
75262;DHT22;63859;51.064;4.580;2024-01-27T05:45:56;2.00;99.90
75262;DHT22;63859;51.064;4.580;2024-01-27T05:48:22;1.90;99.90
75262;DHT22;63859;51.064;4.580;2024-01-27T05:50:58;2.00;99.90
75262;DHT22;63859;51.064;4.580;2024-01-27T05:53:25;1.90;99.90
75262;DHT22;63859;51.064;4.580;2024-01-27T05:55:51;1.90;99.90
75262;DHT22;63859;51.064;4.580;2024-01-27T06:00:46;1.90;99.90
75262;DHT22;63859;51.064;4.580;2024-01-27T06:03:13;1.80;99.90
75262;DHT22;63859;51.064;4.580;2024-01-27T06:05:38;1.90;99.90
75262;DHT22;63859;51.064;4.580;2024-01-27T06:08:05;1.90;99.90
75262;DHT22;63859;51.064;4.580;2024-01-27T06:10:31;1.80;99.90
75262;DHT22;63859;51.064;4.580;2024-01-27T06:12:57;1.90;99.90
75262;DHT22;63859;51.064;4.580;2024-01-27T06:15:23;1.80;99.90
75262;DHT22;63859;51.064;4.580;2024-01-27T06:17:48;1.80;99.90
75262;DHT22;63859;51.064;4.580;2024-01-27T06:20:14;1.80;99.90
75262;DHT22;63859;51.064;4.580;2024-01-27T06:25:08;1.80;99.90
75262;DHT22;63859;51.064;4.580;2024-01-27T06:27:36;1.80;99.90
75262;DHT22;63859;51.064;4.580;2024-01-27T06:30:01;1.80;99.90
75262;DHT22;63859;51.064;4.580;2024-01-27T06:32:27;1.80;99.90
75262;DHT22;63859;51.064;4.580;2024-01-27T06:34:53;1.80;99.90
75262;DHT22;63859;51.064;4.580;2024-01-27T06:37:19;1.80;99.90
75262;DHT22;63859;51.064;4.580;2024-01-27T06:39:44;1.80;99.90
75262;DHT22;63859;51.064;4.580;2024-01-27T06:42:10;1.80;99.90
75262;DHT22;63859;51.064;4.580;2024-01-27T06:44:36;1.80;99.90
75262;DHT22;63859;51.064;4.580;2024-01-27T06:47:01;1.80;99.90
75262;DHT22;63859;51.064;4.580;2024-01-27T06:49:27;1.80;99.90
75262;DHT22;63859;51.064;4.580;2024-01-27T06:54:19;1.80;99.90
75262;DHT22;63859;51.064;4.580;2024-01-27T06:56:44;1.80;99.90
75262;DHT22;63859;51.064;4.580;2024-01-27T06:59:10;1.70;99.90
75262;DHT22;63859;51.064;4.580;2024-01-27T07:01:35;1.70;99.90
75262;DHT22;63859;51.064;4.580;2024-01-27T07:04:01;1.60;99.90
75262;DHT22;63859;51.064;4.580;2024-01-27T07:06:27;1.60;99.90
75262;DHT22;63859;51.064;4.580;2024-01-27T07:08:52;1.60;99.90
75262;DHT22;63859;51.064;4.580;2024-01-27T07:11:18;1.70;99.90
75262;DHT22;63859;51.064;4.580;2024-01-27T07:13:44;1.60;99.90
75262;DHT22;63859;51.064;4.580;2024-01-27T07:18:35;1.60;99.90
75262;DHT22;63859;51.064;4.580;2024-01-27T07:23:28;1.60;99.90
75262;DHT22;63859;51.064;4.580;2024-01-27T07:25:54;1.60;99.90
75262;DHT22;63859;51.064;4.580;2024-01-27T07:28:19;1.60;99.90
75262;DHT22;63859;51.064;4.580;2024-01-27T07:30:45;1.60;99.90
75262;DHT22;63859;51.064;4.580;2024-01-27T07:33:11;1.60;99.90
75262;DHT22;63859;51.064;4.580;2024-01-27T07:35:36;1.70;99.90
75262;DHT22;63859;51.064;4.580;2024-01-27T07:40:28;1.60;99.90
75262;DHT22;63859;51.064;4.580;2024-01-27T07:42:54;1.60;99.90
75262;DHT22;63859;51.064;4.580;2024-01-27T07:45:20;1.60;99.90
75262;DHT22;63859;51.064;4.580;2024-01-27T07:47:45;1.70;99.90
75262;DHT22;63859;51.064;4.580;2024-01-27T07:50:11;1.70;99.90
75262;DHT22;63859;51.064;4.580;2024-01-27T07:55:03;1.70;99.90
75262;DHT22;63859;51.064;4.580;2024-01-27T07:57:28;1.70;99.90
75262;DHT22;63859;51.064;4.580;2024-01-27T07:59:54;1.80;99.90
75262;DHT22;63859;51.064;4.580;2024-01-27T08:04:46;1.70;99.90
75262;DHT22;63859;51.064;4.580;2024-01-27T08:07:12;1.70;99.90
75262;DHT22;63859;51.064;4.580;2024-01-27T08:09:40;1.70;99.90
75262;DHT22;63859;51.064;4.580;2024-01-27T08:12:06;1.80;99.90
75262;DHT22;63859;51.064;4.580;2024-01-27T08:14:32;1.80;99.90
75262;DHT22;63859;51.064;4.580;2024-01-27T08:17:01;1.80;99.90
75262;DHT22;63859;51.064;4.580;2024-01-27T08:21:55;1.90;99.90
75262;DHT22;63859;51.064;4.580;2024-01-27T08:24:20;1.90;99.90
75262;DHT22;63859;51.064;4.580;2024-01-27T08:26:47;1.90;99.90
75262;DHT22;63859;51.064;4.580;2024-01-27T08:29:13;2.00;99.90
75262;DHT22;63859;51.064;4.580;2024-01-27T08:31:39;2.00;99.90
75262;DHT22;63859;51.064;4.580;2024-01-27T08:34:05;2.00;99.90
75262;DHT22;63859;51.064;4.580;2024-01-27T08:36:31;2.10;99.90
75262;DHT22;63859;51.064;4.580;2024-01-27T08:38:57;2.10;99.90
75262;DHT22;63859;51.064;4.580;2024-01-27T08:41:23;2.10;99.90
75262;DHT22;63859;51.064;4.580;2024-01-27T08:46:15;2.20;99.90
75262;DHT22;63859;51.064;4.580;2024-01-27T08:48:43;2.20;99.90
75262;DHT22;63859;51.064;4.580;2024-01-27T08:51:09;2.20;99.90
75262;DHT22;63859;51.064;4.580;2024-01-27T08:56:01;2.30;99.90
75262;DHT22;63859;51.064;4.580;2024-01-27T09:03:19;2.40;99.90
75262;DHT22;63859;51.064;4.580;2024-01-27T09:05:47;2.40;99.90
75262;DHT22;63859;51.064;4.580;2024-01-27T09:08:14;2.40;99.90
75262;DHT22;63859;51.064;4.580;2024-01-27T09:10:41;2.50;99.90
75262;DHT22;63859;51.064;4.580;2024-01-27T09:13:06;2.50;99.90
75262;DHT22;63859;51.064;4.580;2024-01-27T09:15:32;2.60;99.90
75262;DHT22;63859;51.064;4.580;2024-01-27T09:17:58;2.70;99.90
75262;DHT22;63859;51.064;4.580;2024-01-27T09:20:23;2.70;99.90
75262;DHT22;63859;51.064;4.580;2024-01-27T09:22:49;2.80;99.90
75262;DHT22;63859;51.064;4.580;2024-01-27T09:25:16;2.80;99.90
75262;DHT22;63859;51.064;4.580;2024-01-27T09:27:42;2.90;99.90
75262;DHT22;63859;51.064;4.580;2024-01-27T09:30:08;2.90;99.90
75262;DHT22;63859;51.064;4.580;2024-01-27T09:32:33;3.00;99.90
75262;DHT22;63859;51.064;4.580;2024-01-27T09:39:51;3.20;99.90
75262;DHT22;63859;51.064;4.580;2024-01-27T09:44:48;3.30;99.90
75262;DHT22;63859;51.064;4.580;2024-01-27T09:47:15;3.40;99.90
75262;DHT22;63859;51.064;4.580;2024-01-27T09:49:42;3.40;99.90
75262;DHT22;63859;51.064;4.580;2024-01-27T09:52:09;3.50;99.90
75262;DHT22;63859;51.064;4.580;2024-01-27T09:54:35;3.60;99.90
75262;DHT22;63859;51.064;4.580;2024-01-27T09:57:02;3.70;99.90
75262;DHT22;63859;51.064;4.580;2024-01-27T09:59:29;3.70;99.90
75262;DHT22;63859;51.064;4.580;2024-01-27T10:01:56;3.80;99.90
75262;DHT22;63859;51.064;4.580;2024-01-27T10:06:50;3.90;99.90
75262;DHT22;63859;51.064;4.580;2024-01-27T10:11:47;4.10;99.90
75262;DHT22;63859;51.064;4.580;2024-01-27T10:14:13;4.20;99.90
75262;DHT22;63859;51.064;4.580;2024-01-27T10:16:43;4.20;99.90
75262;DHT22;63859;51.064;4.580;2024-01-27T10:19:19;4.30;99.90
75262;DHT22;63859;51.064;4.580;2024-01-27T10:21:46;4.40;99.90
75262;DHT22;63859;51.064;4.580;2024-01-27T10:24:12;4.40;99.90
75262;DHT22;63859;51.064;4.580;2024-01-27T10:26:38;4.50;99.90
75262;DHT22;63859;51.064;4.580;2024-01-27T10:29:04;4.60;99.90
75262;DHT22;63859;51.064;4.580;2024-01-27T10:31:31;4.70;99.90
75262;DHT22;63859;51.064;4.580;2024-01-27T10:33:57;4.80;99.90
75262;DHT22;63859;51.064;4.580;2024-01-27T10:36:23;4.90;99.90
75262;DHT22;63859;51.064;4.580;2024-01-27T10:41:24;5.10;99.90
75262;DHT22;63859;51.064;4.580;2024-01-27T10:46:20;5.30;99.90
75262;DHT22;63859;51.064;4.580;2024-01-27T10:48:52;5.40;99.90
75262;DHT22;63859;51.064;4.580;2024-01-27T10:53:49;5.50;99.90
75262;DHT22;63859;51.064;4.580;2024-01-27T10:56:18;5.60;99.90
75262;DHT22;63859;51.064;4.580;2024-01-27T10:58:45;5.60;99.90
75262;DHT22;63859;51.064;4.580;2024-01-27T11:03:40;5.80;99.90
75262;DHT22;63859;51.064;4.580;2024-01-27T11:06:07;5.90;99.90
75262;DHT22;63859;51.064;4.580;2024-01-27T11:08:38;6.00;99.90
75262;DHT22;63859;51.064;4.580;2024-01-27T11:11:04;6.10;99.90
75262;DHT22;63859;51.064;4.580;2024-01-27T11:13:33;6.10;99.90
75262;DHT22;63859;51.064;4.580;2024-01-27T11:15:59;6.30;99.90
75262;DHT22;63859;51.064;4.580;2024-01-27T11:20:56;6.40;99.90
75262;DHT22;63859;51.064;4.580;2024-01-27T11:31:03;6.70;99.90
75262;DHT22;63859;51.064;4.580;2024-01-27T11:33:29;6.80;99.90
75262;DHT22;63859;51.064;4.580;2024-01-27T11:36:04;6.90;99.90
75262;DHT22;63859;51.064;4.580;2024-01-27T11:40:57;7.10;99.90
75262;DHT22;63859;51.064;4.580;2024-01-27T11:43:23;7.20;99.90
75262;DHT22;63859;51.064;4.580;2024-01-27T11:48:22;7.30;99.90
75262;DHT22;63859;51.064;4.580;2024-01-27T11:53:14;7.50;99.90
75262;DHT22;63859;51.064;4.580;2024-01-27T11:58:06;7.70;99.90
75262;DHT22;63859;51.064;4.580;2024-01-27T12:02:58;7.80;99.90
75262;DHT22;63859;51.064;4.580;2024-01-27T12:05:23;7.80;99.90
75262;DHT22;63859;51.064;4.580;2024-01-27T12:10:16;7.80;99.90
75262;DHT22;63859;51.064;4.580;2024-01-27T12:12:42;7.70;99.90
75262;DHT22;63859;51.064;4.580;2024-01-27T12:15:08;7.80;99.90
75262;DHT22;63859;51.064;4.580;2024-01-27T12:17:33;7.90;99.90
75262;DHT22;63859;51.064;4.580;2024-01-27T12:20:00;8.00;99.90
75262;DHT22;63859;51.064;4.580;2024-01-27T12:27:24;8.10;99.90
75262;DHT22;63859;51.064;4.580;2024-01-27T12:34:43;8.20;99.90
75262;DHT22;63859;51.064;4.580;2024-01-27T12:37:11;8.20;99.90
75262;DHT22;63859;51.064;4.580;2024-01-27T12:39:44;8.30;99.90
75262;DHT22;63859;51.064;4.580;2024-01-27T12:42:10;8.20;99.90
75262;DHT22;63859;51.064;4.580;2024-01-27T12:44:36;8.20;99.90
75262;DHT22;63859;51.064;4.580;2024-01-27T12:47:02;8.30;99.90
75262;DHT22;63859;51.064;4.580;2024-01-27T12:49:29;8.30;99.90
75262;DHT22;63859;51.064;4.580;2024-01-27T12:51:55;8.40;99.90
75262;DHT22;63859;51.064;4.580;2024-01-27T12:54:21;8.50;99.90
75262;DHT22;63859;51.064;4.580;2024-01-27T12:56:47;8.40;99.90
75262;DHT22;63859;51.064;4.580;2024-01-27T12:59:12;8.40;99.90
75262;DHT22;63859;51.064;4.580;2024-01-27T13:01:40;8.30;99.90
75262;DHT22;63859;51.064;4.580;2024-01-27T13:08:57;8.60;99.90
75262;DHT22;63859;51.064;4.580;2024-01-27T13:13:49;8.80;99.90
75262;DHT22;63859;51.064;4.580;2024-01-27T13:18:41;9.00;99.90
75262;DHT22;63859;51.064;4.580;2024-01-27T13:21:07;9.20;99.90
75262;DHT22;63859;51.064;4.580;2024-01-27T13:26:00;9.40;99.90
75262;DHT22;63859;51.064;4.580;2024-01-27T13:28:25;9.40;99.90
75262;DHT22;63859;51.064;4.580;2024-01-27T13:33:17;9.40;99.90
75262;DHT22;63859;51.064;4.580;2024-01-27T13:35:43;9.40;99.90
75262;DHT22;63859;51.064;4.580;2024-01-27T13:40:38;9.60;99.90
75262;DHT22;63859;51.064;4.580;2024-01-27T13:45:31;9.60;99.90
75262;DHT22;63859;51.064;4.580;2024-01-27T13:47:57;9.80;99.90
75262;DHT22;63859;51.064;4.580;2024-01-27T13:50:23;10.00;99.90
75262;DHT22;63859;51.064;4.580;2024-01-27T13:52:51;9.90;99.90
75262;DHT22;63859;51.064;4.580;2024-01-27T13:55:16;9.70;99.90
75262;DHT22;63859;51.064;4.580;2024-01-27T13:57:43;9.80;99.90
75262;DHT22;63859;51.064;4.580;2024-01-27T14:00:09;10.00;99.90
75262;DHT22;63859;51.064;4.580;2024-01-27T14:02:35;10.20;99.90
75262;DHT22;63859;51.064;4.580;2024-01-27T14:05:01;10.20;99.90
75262;DHT22;63859;51.064;4.580;2024-01-27T14:07:27;10.20;99.90
75262;DHT22;63859;51.064;4.580;2024-01-27T14:09:53;10.20;99.90
75262;DHT22;63859;51.064;4.580;2024-01-27T14:12:18;10.10;99.90
75262;DHT22;63859;51.064;4.580;2024-01-27T14:14:44;10.10;99.90
75262;DHT22;63859;51.064;4.580;2024-01-27T14:17:10;10.10;99.90
75262;DHT22;63859;51.064;4.580;2024-01-27T14:19:36;10.20;99.90
75262;DHT22;63859;51.064;4.580;2024-01-27T14:22:02;10.20;99.90
75262;DHT22;63859;51.064;4.580;2024-01-27T14:26:54;10.30;99.90
75262;DHT22;63859;51.064;4.580;2024-01-27T14:31:46;10.00;99.90
75262;DHT22;63859;51.064;4.580;2024-01-27T14:36:39;9.80;99.90
75262;DHT22;63859;51.064;4.580;2024-01-27T14:39:05;9.70;99.90
75262;DHT22;63859;51.064;4.580;2024-01-27T14:41:37;9.70;99.90
75262;DHT22;63859;51.064;4.580;2024-01-27T14:44:03;9.60;99.90
75262;DHT22;63859;51.064;4.580;2024-01-27T14:48:55;9.40;99.90
75262;DHT22;63859;51.064;4.580;2024-01-27T14:53:48;9.30;99.90
75262;DHT22;63859;51.064;4.580;2024-01-27T15:01:06;9.10;99.90
75262;DHT22;63859;51.064;4.580;2024-01-27T15:03:32;9.00;99.90
75262;DHT22;63859;51.064;4.580;2024-01-27T15:05:58;9.10;99.90
75262;DHT22;63859;51.064;4.580;2024-01-27T15:08:25;9.00;99.90
75262;DHT22;63859;51.064;4.580;2024-01-27T15:13:17;8.90;99.90
75262;DHT22;63859;51.064;4.580;2024-01-27T15:15:46;8.80;99.90
75262;DHT22;63859;51.064;4.580;2024-01-27T15:20:38;8.70;99.90
75262;DHT22;63859;51.064;4.580;2024-01-27T15:23:04;8.60;99.90
75262;DHT22;63859;51.064;4.580;2024-01-27T15:25:31;8.60;99.90
75262;DHT22;63859;51.064;4.580;2024-01-27T15:32:49;8.40;99.90
75262;DHT22;63859;51.064;4.580;2024-01-27T15:35:14;8.40;99.90
75262;DHT22;63859;51.064;4.580;2024-01-27T15:37:40;8.40;99.90
75262;DHT22;63859;51.064;4.580;2024-01-27T15:40:07;8.30;99.90
75262;DHT22;63859;51.064;4.580;2024-01-27T15:42:35;8.30;99.90
75262;DHT22;63859;51.064;4.580;2024-01-27T15:45:00;8.20;99.90
75262;DHT22;63859;51.064;4.580;2024-01-27T15:47:26;8.20;99.90
75262;DHT22;63859;51.064;4.580;2024-01-27T15:49:52;8.20;99.90
75262;DHT22;63859;51.064;4.580;2024-01-27T15:52:29;8.10;99.90
75262;DHT22;63859;51.064;4.580;2024-01-27T15:54:56;8.00;99.90
75262;DHT22;63859;51.064;4.580;2024-01-27T15:57:21;8.00;99.90
75262;DHT22;63859;51.064;4.580;2024-01-27T15:59:48;8.00;99.90
75262;DHT22;63859;51.064;4.580;2024-01-27T16:02:13;7.90;99.90
75262;DHT22;63859;51.064;4.580;2024-01-27T16:04:39;7.90;99.90
75262;DHT22;63859;51.064;4.580;2024-01-27T16:07:05;7.80;99.90
75262;DHT22;63859;51.064;4.580;2024-01-27T16:16:49;7.60;99.90
75262;DHT22;63859;51.064;4.580;2024-01-27T16:19:14;7.60;99.90
75262;DHT22;63859;51.064;4.580;2024-01-27T16:24:06;7.50;99.90
75262;DHT22;63859;51.064;4.580;2024-01-27T16:26:32;7.40;99.90
75262;DHT22;63859;51.064;4.580;2024-01-27T16:28:58;7.40;99.90
75262;DHT22;63859;51.064;4.580;2024-01-27T16:31:25;7.30;99.90
75262;DHT22;63859;51.064;4.580;2024-01-27T16:36:17;7.20;99.90
75262;DHT22;63859;51.064;4.580;2024-01-27T16:38:42;7.10;99.90
75262;DHT22;63859;51.064;4.580;2024-01-27T16:41:08;7.10;99.90
75262;DHT22;63859;51.064;4.580;2024-01-27T16:43:35;7.10;99.90
75262;DHT22;63859;51.064;4.580;2024-01-27T16:46:00;7.00;99.90
75262;DHT22;63859;51.064;4.580;2024-01-27T16:48:26;7.00;99.90
75262;DHT22;63859;51.064;4.580;2024-01-27T16:50:52;7.00;99.90
75262;DHT22;63859;51.064;4.580;2024-01-27T16:53:17;7.00;99.90
75262;DHT22;63859;51.064;4.580;2024-01-27T16:55:43;6.90;99.90
75262;DHT22;63859;51.064;4.580;2024-01-27T17:00:35;6.90;99.90
75262;DHT22;63859;51.064;4.580;2024-01-27T17:03:00;6.90;99.90
75262;DHT22;63859;51.064;4.580;2024-01-27T17:05:26;6.80;99.90
75262;DHT22;63859;51.064;4.580;2024-01-27T17:07:51;6.80;99.90
75262;DHT22;63859;51.064;4.580;2024-01-27T17:10:17;6.70;99.90
75262;DHT22;63859;51.064;4.580;2024-01-27T17:12:43;6.70;99.90
75262;DHT22;63859;51.064;4.580;2024-01-27T17:15:08;6.70;99.90
75262;DHT22;63859;51.064;4.580;2024-01-27T17:17:34;6.60;99.90
75262;DHT22;63859;51.064;4.580;2024-01-27T17:20:00;6.60;99.90
75262;DHT22;63859;51.064;4.580;2024-01-27T17:22:26;6.60;99.90
75262;DHT22;63859;51.064;4.580;2024-01-27T17:24:52;6.60;99.90
75262;DHT22;63859;51.064;4.580;2024-01-27T17:27:18;6.60;99.90
75262;DHT22;63859;51.064;4.580;2024-01-27T17:32:10;6.60;99.90
75262;DHT22;63859;51.064;4.580;2024-01-27T17:34:36;6.50;99.90
75262;DHT22;63859;51.064;4.580;2024-01-27T17:37:02;6.50;99.90
75262;DHT22;63859;51.064;4.580;2024-01-27T17:39:28;6.40;99.90
75262;DHT22;63859;51.064;4.580;2024-01-27T17:41:54;6.40;99.90
75262;DHT22;63859;51.064;4.580;2024-01-27T17:44:19;6.30;99.90
75262;DHT22;63859;51.064;4.580;2024-01-27T17:46:45;6.30;99.90
75262;DHT22;63859;51.064;4.580;2024-01-27T17:49:11;6.30;99.90
75262;DHT22;63859;51.064;4.580;2024-01-27T17:51:36;6.30;99.90
75262;DHT22;63859;51.064;4.580;2024-01-27T17:56:31;6.20;99.90
75262;DHT22;63859;51.064;4.580;2024-01-27T18:01:23;6.20;99.90
75262;DHT22;63859;51.064;4.580;2024-01-27T18:03:49;6.20;99.90
75262;DHT22;63859;51.064;4.580;2024-01-27T18:06:14;6.20;99.90
75262;DHT22;63859;51.064;4.580;2024-01-27T18:08:40;6.10;99.90
75262;DHT22;63859;51.064;4.580;2024-01-27T18:11:06;6.10;99.90
75262;DHT22;63859;51.064;4.580;2024-01-27T18:13:31;6.00;99.90
75262;DHT22;63859;51.064;4.580;2024-01-27T18:15:57;6.00;99.90
75262;DHT22;63859;51.064;4.580;2024-01-27T18:18:28;5.90;99.90
75262;DHT22;63859;51.064;4.580;2024-01-27T18:20:53;5.90;99.90
75262;DHT22;63859;51.064;4.580;2024-01-27T18:23:19;5.90;99.90
75262;DHT22;63859;51.064;4.580;2024-01-27T18:25:45;5.80;99.90
75262;DHT22;63859;51.064;4.580;2024-01-27T18:30:38;5.70;99.90
75262;DHT22;63859;51.064;4.580;2024-01-27T18:33:04;5.60;99.90
75262;DHT22;63859;51.064;4.580;2024-01-27T18:37:56;5.60;99.90
75262;DHT22;63859;51.064;4.580;2024-01-27T18:40:21;5.50;99.90
75262;DHT22;63859;51.064;4.580;2024-01-27T18:42:47;5.50;99.90
75262;DHT22;63859;51.064;4.580;2024-01-27T18:45:13;5.40;99.90
75262;DHT22;63859;51.064;4.580;2024-01-27T18:47:38;5.40;99.90
75262;DHT22;63859;51.064;4.580;2024-01-27T18:50:11;5.50;99.90
75262;DHT22;63859;51.064;4.580;2024-01-27T18:55:05;5.40;99.90
75262;DHT22;63859;51.064;4.580;2024-01-27T18:57:31;5.40;99.90
75262;DHT22;63859;51.064;4.580;2024-01-27T18:59:56;5.40;99.90
75262;DHT22;63859;51.064;4.580;2024-01-27T19:02:22;5.40;99.90
75262;DHT22;63859;51.064;4.580;2024-01-27T19:04:47;5.30;99.90
75262;DHT22;63859;51.064;4.580;2024-01-27T19:09:39;5.30;99.90
75262;DHT22;63859;51.064;4.580;2024-01-27T19:12:06;5.30;99.90
75262;DHT22;63859;51.064;4.580;2024-01-27T19:16:58;5.20;99.90
75262;DHT22;63859;51.064;4.580;2024-01-27T19:21:53;5.10;99.90
75262;DHT22;63859;51.064;4.580;2024-01-27T19:29:10;5.00;99.90
75262;DHT22;63859;51.064;4.580;2024-01-27T19:31:36;5.00;99.90
75262;DHT22;63859;51.064;4.580;2024-01-27T19:34:02;5.00;99.90
75262;DHT22;63859;51.064;4.580;2024-01-27T19:36:28;5.00;99.90
75262;DHT22;63859;51.064;4.580;2024-01-27T19:38:53;5.00;99.90
75262;DHT22;63859;51.064;4.580;2024-01-27T19:48:39;4.90;99.90
75262;DHT22;63859;51.064;4.580;2024-01-27T19:53:31;4.80;99.90
75262;DHT22;63859;51.064;4.580;2024-01-27T19:58:23;4.80;99.90
75262;DHT22;63859;51.064;4.580;2024-01-27T20:00:50;4.80;99.90
75262;DHT22;63859;51.064;4.580;2024-01-27T20:03:16;4.70;99.90
75262;DHT22;63859;51.064;4.580;2024-01-27T20:05:42;4.70;99.90